sensor_id;sensor_type;location;lat;lon;timestamp;pressure;altitude;pressure_sealevel;temperature;humidity
6532;BME280;3299;42.004;24.868;2024-03-08T00:00:29;98338.34;;;7.22;100.00
6532;BME280;3299;42.004;24.868;2024-03-08T00:02:57;98303.06;;;6.95;100.00
6532;BME280;3299;42.004;24.868;2024-03-08T00:05:22;98286.78;;;6.94;100.00
6532;BME280;3299;42.004;24.868;2024-03-08T00:07:48;98239.31;;;6.70;100.00
6532;BME280;3299;42.004;24.868;2024-03-08T00:10:14;98324.50;;;7.25;100.00
6532;BME280;3299;42.004;24.868;2024-03-08T00:12:40;98304.88;;;7.08;100.00
6532;BME280;3299;42.004;24.868;2024-03-08T00:15:10;98288.34;;;6.97;100.00
6532;BME280;3299;42.004;24.868;2024-03-08T00:17:36;98267.75;;;6.83;100.00
6532;BME280;3299;42.004;24.868;2024-03-08T00:20:02;98277.84;;;7.01;100.00
6532;BME280;3299;42.004;24.868;2024-03-08T00:22:33;98241.19;;;6.82;100.00
6532;BME280;3299;42.004;24.868;2024-03-08T00:24:59;98233.59;;;6.81;100.00
6532;BME280;3299;42.004;24.868;2024-03-08T00:27:24;98267.00;;;7.10;100.00
6532;BME280;3299;42.004;24.868;2024-03-08T00:29:50;98330.59;;;7.38;100.00
6532;BME280;3299;42.004;24.868;2024-03-08T00:32:15;98310.63;;;7.27;100.00
6532;BME280;3299;42.004;24.868;2024-03-08T00:34:42;98235.94;;;6.70;100.00
6532;BME280;3299;42.004;24.868;2024-03-08T00:37:08;98286.84;;;7.08;100.00
6532;BME280;3299;42.004;24.868;2024-03-08T00:39:33;98255.53;;;6.86;100.00
6532;BME280;3299;42.004;24.868;2024-03-08T00:41:59;98265.50;;;7.06;100.00
6532;BME280;3299;42.004;24.868;2024-03-08T00:44:27;98325.72;;;7.33;100.00
6532;BME280;3299;42.004;24.868;2024-03-08T00:46:52;98232.25;;;6.89;100.00
6532;BME280;3299;42.004;24.868;2024-03-08T00:49:18;98237.31;;;6.75;100.00
6532;BME280;3299;42.004;24.868;2024-03-08T00:51:43;98283.94;;;7.14;100.00
6532;BME280;3299;42.004;24.868;2024-03-08T00:54:09;98313.78;;;7.46;100.00
6532;BME280;3299;42.004;24.868;2024-03-08T00:56:34;98249.72;;;7.12;100.00
6532;BME280;3299;42.004;24.868;2024-03-08T00:59:01;98273.31;;;7.34;100.00
6532;BME280;3299;42.004;24.868;2024-03-08T01:01:27;98312.72;;;7.64;100.00
6532;BME280;3299;42.004;24.868;2024-03-08T01:03:53;98221.34;;;7.00;100.00
6532;BME280;3299;42.004;24.868;2024-03-08T01:06:18;98229.69;;;7.03;100.00
6532;BME280;3299;42.004;24.868;2024-03-08T01:08:44;98271.44;;;7.22;100.00
6532;BME280;3299;42.004;24.868;2024-03-08T01:11:10;98221.06;;;7.04;100.00
6532;BME280;3299;42.004;24.868;2024-03-08T01:13:36;98265.16;;;7.28;100.00
6532;BME280;3299;42.004;24.868;2024-03-08T01:16:02;98254.50;;;7.04;100.00
6532;BME280;3299;42.004;24.868;2024-03-08T01:18:29;98267.22;;;7.21;100.00
6532;BME280;3299;42.004;24.868;2024-03-08T01:20:54;98268.16;;;7.20;100.00
6532;BME280;3299;42.004;24.868;2024-03-08T01:23:19;98214.41;;;6.86;100.00
6532;BME280;3299;42.004;24.868;2024-03-08T01:25:45;98254.94;;;6.97;100.00
6532;BME280;3299;42.004;24.868;2024-03-08T01:28:10;98223.19;;;6.82;100.00
6532;BME280;3299;42.004;24.868;2024-03-08T01:30:36;98304.63;;;7.27;100.00
6532;BME280;3299;42.004;24.868;2024-03-08T01:33:03;98272.81;;;7.14;100.00
6532;BME280;3299;42.004;24.868;2024-03-08T01:35:28;98269.66;;;7.09;100.00
6532;BME280;3299;42.004;24.868;2024-03-08T01:37:54;98295.31;;;7.10;100.00
6532;BME280;3299;42.004;24.868;2024-03-08T01:40:20;98231.09;;;6.79;100.00
6532;BME280;3299;42.004;24.868;2024-03-08T01:42:46;98324.28;;;7.43;100.00
6532;BME280;3299;42.004;24.868;2024-03-08T01:45:13;98275.72;;;7.08;100.00
6532;BME280;3299;42.004;24.868;2024-03-08T01:47:38;98272.81;;;7.14;100.00
6532;BME280;3299;42.004;24.868;2024-03-08T01:50:04;98218.97;;;6.81;100.00
6532;BME280;3299;42.004;24.868;2024-03-08T01:52:32;98320.78;;;7.44;100.00
6532;BME280;3299;42.004;24.868;2024-03-08T01:55:01;98320.56;;;7.33;100.00
6532;BME280;3299;42.004;24.868;2024-03-08T01:57:28;98232.16;;;6.75;100.00
6532;BME280;3299;42.004;24.868;2024-03-08T01:59:54;98283.00;;;7.15;100.00
6532;BME280;3299;42.004;24.868;2024-03-08T02:02:21;98282.44;;;7.10;100.00
6532;BME280;3299;42.004;24.868;2024-03-08T02:04:47;98286.84;;;7.08;100.00
6532;BME280;3299;42.004;24.868;2024-03-08T02:07:12;98233.59;;;6.65;100.00
6532;BME280;3299;42.004;24.868;2024-03-08T02:09:38;98277.84;;;7.01;100.00
6532;BME280;3299;42.004;24.868;2024-03-08T02:12:05;98279.13;;;7.08;100.00
6532;BME280;3299;42.004;24.868;2024-03-08T02:14:30;98326.06;;;7.27;100.00
6532;BME280;3299;42.004;24.868;2024-03-08T02:17:00;98270.69;;;6.91;100.00
6532;BME280;3299;42.004;24.868;2024-03-08T02:19:25;98298.41;;;7.01;100.00
6532;BME280;3299;42.004;24.868;2024-03-08T02:21:51;98273.19;;;6.92;100.00
6532;BME280;3299;42.004;24.868;2024-03-08T02:24:16;98238.38;;;6.71;100.00
6532;BME280;3299;42.004;24.868;2024-03-08T02:26:42;98328.13;;;7.21;100.00
6532;BME280;3299;42.004;24.868;2024-03-08T02:29:08;98229.69;;;6.58;100.00
6532;BME280;3299;42.004;24.868;2024-03-08T02:31:34;98229.88;;;6.55;100.00
6532;BME280;3299;42.004;24.868;2024-03-08T02:33:59;98249.00;;;6.65;100.00
6532;BME280;3299;42.004;24.868;2024-03-08T02:36:24;98264.50;;;6.79;100.00
6532;BME280;3299;42.004;24.868;2024-03-08T02:38:50;98278.69;;;6.86;100.00
6532;BME280;3299;42.004;24.868;2024-03-08T02:41:15;98233.59;;;6.65;100.00
6532;BME280;3299;42.004;24.868;2024-03-08T02:43:41;98261.38;;;6.74;100.00
6532;BME280;3299;42.004;24.868;2024-03-08T02:46:06;98271.66;;;6.74;100.00
6532;BME280;3299;42.004;24.868;2024-03-08T02:48:31;98264.09;;;6.71;100.00
6532;BME280;3299;42.004;24.868;2024-03-08T02:50:57;98326.91;;;7.12;100.00
6532;BME280;3299;42.004;24.868;2024-03-08T02:53:22;98309.84;;;6.96;100.00
6532;BME280;3299;42.004;24.868;2024-03-08T02:55:49;98314.06;;;6.97;100.00
6532;BME280;3299;42.004;24.868;2024-03-08T02:58:15;98240.91;;;6.57;100.00
6532;BME280;3299;42.004;24.868;2024-03-08T03:00:40;98280.34;;;6.87;100.00
6532;BME280;3299;42.004;24.868;2024-03-08T03:03:06;98320.38;;;7.07;100.00
6532;BME280;3299;42.004;24.868;2024-03-08T03:05:32;98228.31;;;6.53;100.00
6532;BME280;3299;42.004;24.868;2024-03-08T03:07:57;98307.50;;;7.07;100.00
6532;BME280;3299;42.004;24.868;2024-03-08T03:10:24;98233.47;;;6.53;100.00
6532;BME280;3299;42.004;24.868;2024-03-08T03:12:49;98233.28;;;6.56;100.00
6532;BME280;3299;42.004;24.868;2024-03-08T03:15:15;98333.97;;;7.09;100.00
6532;BME280;3299;42.004;24.868;2024-03-08T03:17:47;98198.25;;;6.24;100.00
6532;BME280;3299;42.004;24.868;2024-03-08T03:20:14;98331.59;;;7.06;100.00
6532;BME280;3299;42.004;24.868;2024-03-08T03:22:40;98270.16;;;6.70;100.00
6532;BME280;3299;42.004;24.868;2024-03-08T03:25:07;98238.34;;;6.57;100.00
6532;BME280;3299;42.004;24.868;2024-03-08T03:27:33;98258.06;;;6.57;100.00
6532;BME280;3299;42.004;24.868;2024-03-08T03:29:58;98272.59;;;6.58;100.00
6532;BME280;3299;42.004;24.868;2024-03-08T03:32:44;98338.56;;;6.88;100.00
6532;BME280;3299;42.004;24.868;2024-03-08T03:35:12;98314.78;;;6.69;100.00
6532;BME280;3299;42.004;24.868;2024-03-08T03:37:38;98191.50;;;5.90;100.00
6532;BME280;3299;42.004;24.868;2024-03-08T03:40:05;98250.53;;;6.23;100.00
6532;BME280;3299;42.004;24.868;2024-03-08T03:42:31;98298.69;;;6.50;100.00
6532;BME280;3299;42.004;24.868;2024-03-08T03:44:56;98337.44;;;6.78;100.00
6532;BME280;3299;42.004;24.868;2024-03-08T03:47:21;98262.13;;;6.30;100.00
6532;BME280;3299;42.004;24.868;2024-03-08T03:49:47;98296.47;;;6.44;100.00
6532;BME280;3299;42.004;24.868;2024-03-08T03:52:12;98280.59;;;6.36;100.00
6532;BME280;3299;42.004;24.868;2024-03-08T03:54:38;98253.00;;;6.24;100.00
6532;BME280;3299;42.004;24.868;2024-03-08T03:57:04;98248.19;;;6.18;100.00
6532;BME280;3299;42.004;24.868;2024-03-08T03:59:29;98284.53;;;6.43;100.00
6532;BME280;3299;42.004;24.868;2024-03-08T04:01:55;98259.97;;;6.22;100.00
6532;BME280;3299;42.004;24.868;2024-03-08T04:04:24;98357.50;;;6.72;100.00
6532;BME280;3299;42.004;24.868;2024-03-08T04:06:49;98281.84;;;6.29;100.00
6532;BME280;3299;42.004;24.868;2024-03-08T04:09:16;98340.06;;;6.61;100.00
6532;BME280;3299;42.004;24.868;2024-03-08T04:11:44;98338.91;;;6.67;100.00
6532;BME280;3299;42.004;24.868;2024-03-08T04:14:10;98262.28;;;6.11;100.00
6532;BME280;3299;42.004;24.868;2024-03-08T04:16:35;98299.91;;;6.28;100.00
6532;BME280;3299;42.004;24.868;2024-03-08T04:19:01;98307.72;;;6.26;100.00
6532;BME280;3299;42.004;24.868;2024-03-08T04:21:30;98310.63;;;6.20;100.00
6532;BME280;3299;42.004;24.868;2024-03-08T04:23:55;98360.13;;;6.55;100.00
6532;BME280;3299;42.004;24.868;2024-03-08T04:26:21;98313.34;;;6.33;100.00
6532;BME280;3299;42.004;24.868;2024-03-08T04:28:47;98260.69;;;5.93;100.00
6532;BME280;3299;42.004;24.868;2024-03-08T04:31:12;98358.88;;;6.46;100.00
6532;BME280;3299;42.004;24.868;2024-03-08T04:33:37;98361.19;;;6.51;100.00
6532;BME280;3299;42.004;24.868;2024-03-08T04:36:04;98311.34;;;6.22;100.00
6532;BME280;3299;42.004;24.868;2024-03-08T04:38:30;98270.22;;;5.91;100.00
6532;BME280;3299;42.004;24.868;2024-03-08T04:40:56;98357.63;;;6.38;100.00
6532;BME280;3299;42.004;24.868;2024-03-08T04:43:22;98274.69;;;5.88;100.00
6532;BME280;3299;42.004;24.868;2024-03-08T04:45:51;98352.47;;;6.22;100.00
6532;BME280;3299;42.004;24.868;2024-03-08T04:48:16;98347.31;;;6.22;100.00
6532;BME280;3299;42.004;24.868;2024-03-08T04:50:41;98351.28;;;6.28;100.00
6532;BME280;3299;42.004;24.868;2024-03-08T04:53:07;98367.03;;;6.22;100.00
6532;BME280;3299;42.004;24.868;2024-03-08T04:55:34;98359.59;;;6.33;100.00
6532;BME280;3299;42.004;24.868;2024-03-08T04:57:59;98317.59;;;6.01;100.00
6532;BME280;3299;42.004;24.868;2024-03-08T05:00:25;98339.38;;;6.27;100.00
6532;BME280;3299;42.004;24.868;2024-03-08T05:02:50;98338.03;;;6.20;100.00
6532;BME280;3299;42.004;24.868;2024-03-08T05:05:18;98357.28;;;6.28;100.00
6532;BME280;3299;42.004;24.868;2024-03-08T05:07:44;98355.13;;;6.36;100.00
6532;BME280;3299;42.004;24.868;2024-03-08T05:10:11;98366.66;;;6.45;100.00
6532;BME280;3299;42.004;24.868;2024-03-08T05:12:36;98379.75;;;6.40;100.00
6532;BME280;3299;42.004;24.868;2024-03-08T05:15:04;98361.75;;;6.25;100.00
6532;BME280;3299;42.004;24.868;2024-03-08T05:17:30;98325.75;;;6.09;100.00
6532;BME280;3299;42.004;24.868;2024-03-08T05:19:55;98309.78;;;5.87;100.00
6532;BME280;3299;42.004;24.868;2024-03-08T05:22:21;98329.56;;;6.02;100.00
6532;BME280;3299;42.004;24.868;2024-03-08T05:24:46;98371.19;;;6.24;100.00
6532;BME280;3299;42.004;24.868;2024-03-08T05:27:12;98403.72;;;6.41;100.00
6532;BME280;3299;42.004;24.868;2024-03-08T05:29:38;98362.72;;;6.22;100.00
6532;BME280;3299;42.004;24.868;2024-03-08T05:32:04;98411.84;;;6.49;100.00
6532;BME280;3299;42.004;24.868;2024-03-08T05:34:29;98352.44;;;6.07;100.00
6532;BME280;3299;42.004;24.868;2024-03-08T05:36:55;98403.06;;;6.37;100.00
6532;BME280;3299;42.004;24.868;2024-03-08T05:39:20;98355.66;;;6.10;100.00
6532;BME280;3299;42.004;24.868;2024-03-08T05:41:46;98399.66;;;6.37;100.00
6532;BME280;3299;42.004;24.868;2024-03-08T05:44:12;98417.84;;;6.49;100.00
6532;BME280;3299;42.004;24.868;2024-03-08T05:46:38;98426.25;;;6.36;100.00
6532;BME280;3299;42.004;24.868;2024-03-08T05:49:05;98417.63;;;6.37;100.00
6532;BME280;3299;42.004;24.868;2024-03-08T05:51:31;98384.50;;;6.15;100.00
6532;BME280;3299;42.004;24.868;2024-03-08T05:54:02;98409.34;;;6.15;100.00
6532;BME280;3299;42.004;24.868;2024-03-08T05:56:29;98419.34;;;6.36;100.00
6532;BME280;3299;42.004;24.868;2024-03-08T05:58:55;98410.63;;;6.23;100.00
6532;BME280;3299;42.004;24.868;2024-03-08T06:01:21;98341.75;;;5.82;100.00
6532;BME280;3299;42.004;24.868;2024-03-08T06:03:47;98362.19;;;5.83;100.00
6532;BME280;3299;42.004;24.868;2024-03-08T06:06:14;98384.28;;;6.03;100.00
6532;BME280;3299;42.004;24.868;2024-03-08T06:08:40;98430.78;;;6.31;100.00
6532;BME280;3299;42.004;24.868;2024-03-08T06:11:08;98348.44;;;5.84;100.00
6532;BME280;3299;42.004;24.868;2024-03-08T06:13:33;98443.41;;;6.35;100.00
6532;BME280;3299;42.004;24.868;2024-03-08T06:15:59;98449.13;;;6.40;100.00
6532;BME280;3299;42.004;24.868;2024-03-08T06:18:32;98399.09;;;5.98;100.00
6532;BME280;3299;42.004;24.868;2024-03-08T06:20:58;98392.97;;;6.00;100.00
6532;BME280;3299;42.004;24.868;2024-03-08T06:23:23;98453.97;;;6.46;100.00
6532;BME280;3299;42.004;24.868;2024-03-08T06:25:48;98412.59;;;6.18;100.00
6532;BME280;3299;42.004;24.868;2024-03-08T06:28:14;98432.22;;;6.19;100.00
6532;BME280;3299;42.004;24.868;2024-03-08T06:30:40;98443.88;;;6.26;100.00
6532;BME280;3299;42.004;24.868;2024-03-08T06:33:05;98433.56;;;6.11;100.00
6532;BME280;3299;42.004;24.868;2024-03-08T06:35:32;98369.22;;;5.80;100.00
6532;BME280;3299;42.004;24.868;2024-03-08T06:37:58;98362.41;;;5.79;100.00
6532;BME280;3299;42.004;24.868;2024-03-08T06:40:26;98448.09;;;6.27;100.00
6532;BME280;3299;42.004;24.868;2024-03-08T06:42:55;98465.34;;;6.25;100.00
6532;BME280;3299;42.004;24.868;2024-03-08T06:45:20;98370.66;;;5.68;100.00
6532;BME280;3299;42.004;24.868;2024-03-08T06:47:47;98410.28;;;5.97;100.00
6532;BME280;3299;42.004;24.868;2024-03-08T06:50:13;98423.03;;;6.15;100.00
6532;BME280;3299;42.004;24.868;2024-03-08T06:52:40;98456.25;;;6.35;100.00
6532;BME280;3299;42.004;24.868;2024-03-08T06:55:08;98432.84;;;6.24;100.00
6532;BME280;3299;42.004;24.868;2024-03-08T06:57:39;98440.16;;;6.32;100.00
6532;BME280;3299;42.004;24.868;2024-03-08T07:00:09;98388.22;;;6.10;100.00
6532;BME280;3299;42.004;24.868;2024-03-08T07:02:37;98445.00;;;6.21;100.00
6532;BME280;3299;42.004;24.868;2024-03-08T07:05:05;98477.47;;;6.39;100.00
6532;BME280;3299;42.004;24.868;2024-03-08T07:07:31;98450.22;;;6.19;100.00
6532;BME280;3299;42.004;24.868;2024-03-08T07:09:57;98397.66;;;5.75;100.00
6532;BME280;3299;42.004;24.868;2024-03-08T07:12:22;98469.59;;;6.09;100.00
6532;BME280;3299;42.004;24.868;2024-03-08T07:14:48;98481.34;;;6.13;100.00
6532;BME280;3299;42.004;24.868;2024-03-08T07:17:14;98388.06;;;5.79;100.00
6532;BME280;3299;42.004;24.868;2024-03-08T07:19:39;98484.97;;;6.43;100.00
6532;BME280;3299;42.004;24.868;2024-03-08T07:22:05;98492.72;;;6.59;100.00
6532;BME280;3299;42.004;24.868;2024-03-08T07:24:36;98439.38;;;6.14;100.00
6532;BME280;3299;42.004;24.868;2024-03-08T07:27:03;98436.63;;;6.00;100.00
6532;BME280;3299;42.004;24.868;2024-03-08T07:29:30;98492.69;;;6.43;100.00
6532;BME280;3299;42.004;24.868;2024-03-08T07:31:55;98437.09;;;6.08;100.00
6532;BME280;3299;42.004;24.868;2024-03-08T07:34:27;98403.72;;;5.74;100.00
6532;BME280;3299;42.004;24.868;2024-03-08T07:36:57;98433.03;;;5.87;100.00
6532;BME280;3299;42.004;24.868;2024-03-08T07:39:22;98469.72;;;6.23;100.00
6532;BME280;3299;42.004;24.868;2024-03-08T07:41:49;98421.78;;;6.07;100.00
6532;BME280;3299;42.004;24.868;2024-03-08T07:44:15;98413.44;;;6.19;100.00
6532;BME280;3299;42.004;24.868;2024-03-08T07:46:41;98396.91;;;6.07;100.00
6532;BME280;3299;42.004;24.868;2024-03-08T07:49:07;98481.78;;;6.55;100.00
6532;BME280;3299;42.004;24.868;2024-03-08T07:51:36;98455.44;;;6.35;100.00
6532;BME280;3299;42.004;24.868;2024-03-08T07:54:03;98420.41;;;6.17;100.00
6532;BME280;3299;42.004;24.868;2024-03-08T07:56:30;98492.06;;;6.55;100.00
6532;BME280;3299;42.004;24.868;2024-03-08T07:58:55;98428.00;;;6.18;100.00
6532;BME280;3299;42.004;24.868;2024-03-08T08:01:21;98434.06;;;6.17;100.00
6532;BME280;3299;42.004;24.868;2024-03-08T08:03:47;98497.63;;;6.63;100.00
6532;BME280;3299;42.004;24.868;2024-03-08T08:06:15;98428.16;;;6.32;100.00
6532;BME280;3299;42.004;24.868;2024-03-08T08:08:44;98508.44;;;6.70;100.00
6532;BME280;3299;42.004;24.868;2024-03-08T08:11:09;98414.78;;;6.26;100.00
6532;BME280;3299;42.004;24.868;2024-03-08T08:13:36;98486.34;;;6.66;100.00
6532;BME280;3299;42.004;24.868;2024-03-08T08:16:03;98449.22;;;6.22;100.00
6532;BME280;3299;42.004;24.868;2024-03-08T08:18:29;98492.41;;;6.65;100.00
6532;BME280;3299;42.004;24.868;2024-03-08T08:20:55;98502.63;;;6.66;100.00
6532;BME280;3299;42.004;24.868;2024-03-08T08:23:21;98500.38;;;6.60;100.00
6532;BME280;3299;42.004;24.868;2024-03-08T08:25:47;98512.06;;;6.66;100.00
6532;BME280;3299;42.004;24.868;2024-03-08T08:28:16;98418.44;;;6.05;100.00
6532;BME280;3299;42.004;24.868;2024-03-08T08:30:43;98438.91;;;6.06;100.00
6532;BME280;3299;42.004;24.868;2024-03-08T08:33:08;98473.63;;;6.30;100.00
6532;BME280;3299;42.004;24.868;2024-03-08T08:35:34;98446.16;;;6.15;100.00
6532;BME280;3299;42.004;24.868;2024-03-08T08:37:59;98476.97;;;6.32;100.00
6532;BME280;3299;42.004;24.868;2024-03-08T08:40:25;98422.56;;;6.07;100.00
6532;BME280;3299;42.004;24.868;2024-03-08T08:42:51;98441.91;;;6.31;100.00
6532;BME280;3299;42.004;24.868;2024-03-08T08:45:18;98503.88;;;6.75;100.00
6532;BME280;3299;42.004;24.868;2024-03-08T08:47:44;98438.41;;;6.49;100.00
6532;BME280;3299;42.004;24.868;2024-03-08T08:50:10;98516.72;;;7.07;100.00
6532;BME280;3299;42.004;24.868;2024-03-08T08:52:38;98517.97;;;7.16;100.00
6532;BME280;3299;42.004;24.868;2024-03-08T08:55:04;98450.72;;;6.75;100.00
6532;BME280;3299;42.004;24.868;2024-03-08T08:57:31;98470.25;;;7.10;100.00
6532;BME280;3299;42.004;24.868;2024-03-08T08:59:58;98447.94;;;6.95;100.00
6532;BME280;3299;42.004;24.868;2024-03-08T09:02:24;98467.34;;;7.01;100.00
6532;BME280;3299;42.004;24.868;2024-03-08T09:04:50;98472.06;;;7.08;100.00
6532;BME280;3299;42.004;24.868;2024-03-08T09:07:16;98513.75;;;7.30;100.00
6532;BME280;3299;42.004;24.868;2024-03-08T09:09:44;98524.28;;;7.41;100.00
6532;BME280;3299;42.004;24.868;2024-03-08T09:12:10;98502.22;;;7.37;100.00
6532;BME280;3299;42.004;24.868;2024-03-08T09:14:41;98440.22;;;6.95;100.00
6532;BME280;3299;42.004;24.868;2024-03-08T09:17:08;98445.25;;;6.97;100.00
6532;BME280;3299;42.004;24.868;2024-03-08T09:19:36;98449.72;;;7.09;100.00
6532;BME280;3299;42.004;24.868;2024-03-08T09:22:03;98540.41;;;7.60;100.00
6532;BME280;3299;42.004;24.868;2024-03-08T09:24:29;98441.28;;;7.22;100.00
6532;BME280;3299;42.004;24.868;2024-03-08T09:26:56;98524.75;;;7.79;100.00
6532;BME280;3299;42.004;24.868;2024-03-08T09:29:22;98511.56;;;7.69;100.00
6532;BME280;3299;42.004;24.868;2024-03-08T09:31:48;98523.03;;;7.79;100.00
6532;BME280;3299;42.004;24.868;2024-03-08T09:34:13;98471.97;;;7.56;100.00
6532;BME280;3299;42.004;24.868;2024-03-08T09:36:39;98478.75;;;7.73;100.00
6532;BME280;3299;42.004;24.868;2024-03-08T09:39:06;98445.28;;;7.73;100.00
6532;BME280;3299;42.004;24.868;2024-03-08T09:41:33;98520.56;;;8.07;100.00
6532;BME280;3299;42.004;24.868;2024-03-08T09:43:59;98513.63;;;7.94;100.00
6532;BME280;3299;42.004;24.868;2024-03-08T09:46:25;98458.38;;;7.84;100.00
6532;BME280;3299;42.004;24.868;2024-03-08T09:48:52;98523.88;;;8.25;100.00
6532;BME280;3299;42.004;24.868;2024-03-08T09:51:27;98532.75;;;8.19;100.00
6532;BME280;3299;42.004;24.868;2024-03-08T09:53:53;98432.50;;;7.71;100.00
6532;BME280;3299;42.004;24.868;2024-03-08T09:56:19;98522.72;;;8.44;100.00
6532;BME280;3299;42.004;24.868;2024-03-08T09:58:45;98506.97;;;8.49;100.00
6532;BME280;3299;42.004;24.868;2024-03-08T10:01:36;98474.56;;;8.15;100.00
6532;BME280;3299;42.004;24.868;2024-03-08T10:04:04;98522.81;;;8.13;100.00
6532;BME280;3299;42.004;24.868;2024-03-08T10:06:30;98484.44;;;7.93;100.00
6532;BME280;3299;42.004;24.868;2024-03-08T10:08:56;98522.28;;;8.22;100.00
6532;BME280;3299;42.004;24.868;2024-03-08T10:11:22;98510.53;;;8.32;100.00
6532;BME280;3299;42.004;24.868;2024-03-08T10:13:49;98531.28;;;8.45;100.00
6532;BME280;3299;42.004;24.868;2024-03-08T10:16:15;98446.13;;;8.03;100.00
6532;BME280;3299;42.004;24.868;2024-03-08T10:18:42;98512.09;;;8.64;100.00
6532;BME280;3299;42.004;24.868;2024-03-08T10:21:08;98432.72;;;8.26;100.00
6532;BME280;3299;42.004;24.868;2024-03-08T10:23:36;98468.41;;;8.61;100.00
6532;BME280;3299;42.004;24.868;2024-03-08T10:26:20;98483.88;;;8.61;100.00
6532;BME280;3299;42.004;24.868;2024-03-08T10:28:48;98427.69;;;8.24;100.00
6532;BME280;3299;42.004;24.868;2024-03-08T10:31:15;98492.53;;;8.74;100.00
6532;BME280;3299;42.004;24.868;2024-03-08T10:33:41;98425.19;;;8.37;100.00
6532;BME280;3299;42.004;24.868;2024-03-08T10:36:09;98452.66;;;8.66;100.00
6532;BME280;3299;42.004;24.868;2024-03-08T10:38:36;98461.97;;;8.68;100.00
6532;BME280;3299;42.004;24.868;2024-03-08T10:41:03;98507.41;;;8.85;100.00
6532;BME280;3299;42.004;24.868;2024-03-08T10:43:37;98468.03;;;8.53;100.00
6532;BME280;3299;42.004;24.868;2024-03-08T10:46:21;98502.50;;;8.66;100.00
6532;BME280;3299;42.004;24.868;2024-03-08T10:48:52;98411.56;;;8.35;100.00
6532;BME280;3299;42.004;24.868;2024-03-08T10:51:19;98450.34;;;8.61;100.00
6532;BME280;3299;42.004;24.868;2024-03-08T10:53:46;98507.00;;;9.05;100.00
6532;BME280;3299;42.004;24.868;2024-03-08T10:56:13;98508.03;;;9.02;100.00
6532;BME280;3299;42.004;24.868;2024-03-08T10:58:40;98460.50;;;8.64;100.00
6532;BME280;3299;42.004;24.868;2024-03-08T11:01:06;98499.72;;;8.97;100.00
6532;BME280;3299;42.004;24.868;2024-03-08T11:06:23;98497.69;;;9.02;100.00
6532;BME280;3299;42.004;24.868;2024-03-08T11:08:48;98453.03;;;8.60;100.00
6532;BME280;3299;42.004;24.868;2024-03-08T11:11:32;98444.44;;;8.45;100.00
6532;BME280;3299;42.004;24.868;2024-03-08T11:14:00;98447.59;;;8.50;100.00
6532;BME280;3299;42.004;24.868;2024-03-08T11:18:58;98452.63;;;8.24;100.00
6532;BME280;3299;42.004;24.868;2024-03-08T11:21:32;98449.88;;;8.27;100.00
6532;BME280;3299;42.004;24.868;2024-03-08T11:24:06;98475.47;;;8.30;100.00
6532;BME280;3299;42.004;24.868;2024-03-08T11:26:33;98427.19;;;8.18;100.00
6532;BME280;3299;42.004;24.868;2024-03-08T11:29:33;98494.69;;;8.68;100.00
6532;BME280;3299;42.004;24.868;2024-03-08T11:32:08;98489.03;;;8.61;100.00
6532;BME280;3299;42.004;24.868;2024-03-08T11:34:47;98455.50;;;8.47;100.00
6532;BME280;3299;42.004;24.868;2024-03-08T11:37:18;98484.44;;;8.66;100.00
6532;BME280;3299;42.004;24.868;2024-03-08T11:39:47;98455.31;;;8.50;100.00
6532;BME280;3299;42.004;24.868;2024-03-08T11:42:14;98444.47;;;8.59;100.00
6532;BME280;3299;42.004;24.868;2024-03-08T11:44:40;98499.72;;;9.11;100.00
6532;BME280;3299;42.004;24.868;2024-03-08T11:47:10;98419.97;;;8.66;100.00
6532;BME280;3299;42.004;24.868;2024-03-08T11:49:36;98490.97;;;9.14;100.00
6532;BME280;3299;42.004;24.868;2024-03-08T11:52:02;98502.13;;;9.28;100.00
6532;BME280;3299;42.004;24.868;2024-03-08T11:54:28;98482.72;;;9.21;100.00
6532;BME280;3299;42.004;24.868;2024-03-08T11:56:58;98479.94;;;9.38;100.00
6532;BME280;3299;42.004;24.868;2024-03-08T11:59:28;98476.50;;;9.52;100.00
6532;BME280;3299;42.004;24.868;2024-03-08T12:02:04;98466.25;;;9.50;100.00
6532;BME280;3299;42.004;24.868;2024-03-08T12:04:30;98407.88;;;9.21;100.00
6532;BME280;3299;42.004;24.868;2024-03-08T12:06:59;98393.34;;;8.80;100.00
6532;BME280;3299;42.004;24.868;2024-03-08T12:09:26;98441.34;;;9.23;100.00
6532;BME280;3299;42.004;24.868;2024-03-08T12:11:52;98393.38;;;8.92;100.00
6532;BME280;3299;42.004;24.868;2024-03-08T12:14:17;98480.09;;;9.49;100.00
6532;BME280;3299;42.004;24.868;2024-03-08T12:16:43;98461.84;;;9.52;100.00
6532;BME280;3299;42.004;24.868;2024-03-08T12:19:09;98481.66;;;9.78;100.00
6532;BME280;3299;42.004;24.868;2024-03-08T12:21:35;98437.06;;;9.62;100.00
6532;BME280;3299;42.004;24.868;2024-03-08T12:24:10;98411.44;;;9.59;100.00
6532;BME280;3299;42.004;24.868;2024-03-08T12:26:37;98468.75;;;9.78;100.00
6532;BME280;3299;42.004;24.868;2024-03-08T12:29:21;98385.56;;;9.20;100.00
6532;BME280;3299;42.004;24.868;2024-03-08T12:31:50;98427.09;;;9.44;100.00
6532;BME280;3299;42.004;24.868;2024-03-08T12:34:17;98404.81;;;9.55;100.00
6532;BME280;3299;42.004;24.868;2024-03-08T12:36:50;98450.66;;;10.04;100.00
6532;BME280;3299;42.004;24.868;2024-03-08T12:39:20;98415.06;;;10.08;100.00
6532;BME280;3299;42.004;24.868;2024-03-08T12:41:48;98423.78;;;10.19;100.00
6532;BME280;3299;42.004;24.868;2024-03-08T12:44:14;98404.31;;;10.14;100.00
6532;BME280;3299;42.004;24.868;2024-03-08T12:46:40;98379.25;;;10.02;100.00
6532;BME280;3299;42.004;24.868;2024-03-08T12:49:08;98440.34;;;10.42;100.00
6532;BME280;3299;42.004;24.868;2024-03-08T12:51:34;98460.44;;;10.51;100.00
6532;BME280;3299;42.004;24.868;2024-03-08T12:54:00;98378.09;;;9.68;100.00
6532;BME280;3299;42.004;24.868;2024-03-08T12:56:32;98443.16;;;10.00;100.00
6532;BME280;3299;42.004;24.868;2024-03-08T12:58:59;98421.75;;;9.85;100.00
6532;BME280;3299;42.004;24.868;2024-03-08T13:01:25;98453.56;;;10.13;100.00
6532;BME280;3299;42.004;24.868;2024-03-08T13:03:52;98411.94;;;10.03;100.00
6532;BME280;3299;42.004;24.868;2024-03-08T13:06:18;98357.63;;;9.78;100.00
6532;BME280;3299;42.004;24.868;2024-03-08T13:08:44;98420.06;;;10.23;100.00
6532;BME280;3299;42.004;24.868;2024-03-08T13:11:10;98368.22;;;10.00;100.00
6532;BME280;3299;42.004;24.868;2024-03-08T13:13:43;98453.19;;;10.43;100.00